createdAt,value
2023-05-18T00:01:17.417Z,101069.62
2023-05-18T00:03:55.474Z,101068.70
2023-05-18T00:06:29.139Z,101066.67
2023-05-18T00:09:02.985Z,101061.67
2023-05-18T00:11:40.492Z,101062.32
2023-05-18T00:14:14.104Z,101062.37
2023-05-18T00:16:48.026Z,101066.80
2023-05-18T00:19:22.200Z,101068.04
2023-05-18T00:21:56.318Z,101068.17
2023-05-18T00:24:30.142Z,101071.63
2023-05-18T00:27:03.437Z,101071.80
2023-05-18T00:29:37.091Z,101073.33
2023-05-18T00:32:10.872Z,101071.95
2023-05-18T00:34:44.642Z,101070.61
2023-05-18T00:37:18.827Z,101071.15
2023-05-18T00:39:52.810Z,101075.10
2023-05-18T00:42:26.530Z,101079.20
2023-05-18T00:45:00.204Z,101084.50
2023-05-18T00:47:33.966Z,101086.03
2023-05-18T00:50:09.184Z,101088.58
2023-05-18T00:52:43.128Z,101092.41
2023-05-18T00:55:17.217Z,101092.59
2023-05-18T00:57:50.874Z,101092.77
2023-05-18T01:00:24.781Z,101091.41
2023-05-18T01:02:58.608Z,101095.53
2023-05-18T01:05:32.673Z,101101.63
2023-05-18T01:08:06.882Z,101100.09
2023-05-18T01:10:43.121Z,101101.98
2023-05-18T01:13:33.138Z,101103.90
2023-05-18T01:16:11.705Z,101099.91
2023-05-18T01:18:55.395Z,101095.64
2023-05-18T01:21:52.960Z,101098.18
2023-05-18T01:24:36.916Z,101107.39
2023-05-18T01:27:12.144Z,101113.38
2023-05-18T01:29:47.592Z,101112.43
2023-05-18T01:32:24.015Z,101116.39
2023-05-18T01:34:57.708Z,101115.55
2023-05-18T01:37:31.951Z,101108.48
2023-05-18T01:40:06.722Z,101106.73
2023-05-18T01:42:45.935Z,101107.16
2023-05-18T01:45:26.605Z,101109.74
2023-05-18T01:48:03.929Z,101109.20
2023-05-18T01:50:41.893Z,101111.66
2023-05-18T01:53:22.718Z,101117.19
2023-05-18T01:55:57.854Z,101118.71
2023-05-18T01:58:32.950Z,101121.40
2023-05-18T02:01:08.537Z,101122.35
2023-05-18T02:03:43.046Z,101129.33
2023-05-18T02:06:16.716Z,101133.31
2023-05-18T02:08:51.276Z,101137.77
2023-05-18T02:11:24.958Z,101136.69
2023-05-18T02:13:59.350Z,101136.54
2023-05-18T02:16:33.490Z,101136.14
2023-05-18T02:19:07.715Z,101133.19
2023-05-18T02:21:42.033Z,101135.45
2023-05-18T02:24:15.694Z,101138.18
2023-05-18T02:26:49.743Z,101141.48
2023-05-18T02:29:23.533Z,101143.38
2023-05-18T02:31:57.480Z,101141.39
2023-05-18T02:34:34.217Z,101143.41
2023-05-18T02:37:08.400Z,101145.84
2023-05-18T02:39:42.019Z,101144.64
2023-05-18T02:42:15.716Z,101145.26
2023-05-18T02:44:49.688Z,101148.17
2023-05-18T02:47:23.537Z,101147.30
2023-05-18T02:49:57.224Z,101146.51
2023-05-18T02:52:31.279Z,101146.46
2023-05-18T02:55:05.726Z,101150.52
2023-05-18T02:57:57.659Z,101152.96
2023-05-18T03:00:43.713Z,101152.75
2023-05-18T03:03:17.983Z,101156.74
2023-05-18T03:05:54.212Z,101165.10
2023-05-18T03:08:29.141Z,101171.31
2023-05-18T03:11:02.933Z,101175.66
2023-05-18T03:13:40.111Z,101175.84
2023-05-18T03:16:13.696Z,101176.59
2023-05-18T03:18:47.346Z,101178.23
2023-05-18T03:21:22.329Z,101179.88
2023-05-18T03:23:56.260Z,101182.90
2023-05-18T03:26:31.323Z,101185.38
2023-05-18T03:29:04.928Z,101188.89
2023-05-18T03:31:39.517Z,101189.67
2023-05-18T03:34:13.756Z,101192.42
2023-05-18T03:36:48.583Z,101193.44
2023-05-18T03:39:22.765Z,101193.27
2023-05-18T03:41:56.805Z,101194.65
2023-05-18T03:44:31.223Z,101194.78
2023-05-18T03:47:05.180Z,101200.31
2023-05-18T03:49:42.115Z,101202.74
2023-05-18T03:52:22.745Z,101199.45
2023-05-18T03:54:56.740Z,101201.62
2023-05-18T03:57:31.181Z,101205.70
2023-05-18T04:00:12.602Z,101206.05
2023-05-18T04:02:52.256Z,101205.58
2023-05-18T04:05:29.056Z,101209.37
2023-05-18T04:08:03.088Z,101209.02
2023-05-18T04:10:37.279Z,101215.20
2023-05-18T04:13:10.957Z,101219.70
2023-05-18T04:15:45.252Z,101222.64
2023-05-18T04:18:19.346Z,101224.85
2023-05-18T04:20:53.241Z,101231.05
2023-05-18T04:23:27.501Z,101229.09
2023-05-18T04:26:01.826Z,101232.62
2023-05-18T04:28:38.002Z,101233.74
2023-05-18T04:31:14.851Z,101235.95
2023-05-18T04:33:48.940Z,101237.61
2023-05-18T04:36:26.533Z,101236.73
2023-05-18T04:39:00.198Z,101239.82
2023-05-18T04:41:34.719Z,101241.33
2023-05-18T04:44:08.288Z,101244.84
2023-05-18T04:46:42.217Z,101245.22
2023-05-18T04:49:16.508Z,101239.73
2023-05-18T04:51:50.798Z,101242.70
2023-05-18T04:54:25.088Z,101243.17
2023-05-18T04:56:59.394Z,101246.61
2023-05-18T04:59:37.505Z,101244.77
2023-05-18T05:02:11.656Z,101246.77
2023-05-18T05:04:47.101Z,101247.28
2023-05-18T05:07:21.656Z,101249.77
2023-05-18T05:09:55.422Z,101252.04
2023-05-18T05:12:29.332Z,101253.15
2023-05-18T05:15:03.432Z,101251.11
2023-05-18T05:17:37.894Z,101250.00
2023-05-18T05:20:15.116Z,101255.41
2023-05-18T05:22:49.354Z,101256.22
2023-05-18T05:25:29.036Z,101264.70
2023-05-18T05:28:02.777Z,101261.20
2023-05-18T05:30:36.868Z,101259.58
2023-05-18T05:33:10.511Z,101261.69
2023-05-18T05:35:44.728Z,101262.53
2023-05-18T05:38:18.375Z,101260.80
2023-05-18T05:40:52.212Z,101266.03
2023-05-18T05:43:26.274Z,101270.41
2023-05-18T05:46:00.095Z,101273.39
2023-05-18T05:48:34.937Z,101273.95
2023-05-18T05:51:09.585Z,101278.06
2023-05-18T05:53:43.900Z,101275.89
2023-05-18T05:56:17.885Z,101277.64
2023-05-18T05:58:52.162Z,101276.84
2023-05-18T06:01:26.134Z,101277.20
2023-05-18T06:04:00.208Z,101273.67
2023-05-18T06:06:34.363Z,101271.73
2023-05-18T06:09:09.194Z,101277.94
2023-05-18T06:11:42.873Z,101281.50
2023-05-18T06:14:17.146Z,101284.50
2023-05-18T06:16:51.514Z,101280.67
2023-05-18T06:19:25.759Z,101279.22
2023-05-18T06:22:00.315Z,101279.54
2023-05-18T06:24:36.674Z,101279.12
2023-05-18T06:27:32.279Z,101278.91
2023-05-18T06:30:36.216Z,101280.23
2023-05-18T06:33:18.327Z,101281.23
2023-05-18T06:35:52.270Z,101282.93
2023-05-18T06:38:26.679Z,101283.14
2023-05-18T06:41:00.770Z,101288.10
2023-05-18T06:43:34.918Z,101289.98
2023-05-18T06:46:32.425Z,101292.38
2023-05-18T06:49:13.562Z,101288.55
2023-05-18T06:51:47.642Z,101286.02
2023-05-18T06:54:22.712Z,101286.32
2023-05-18T06:56:56.922Z,101289.73
2023-05-18T06:59:31.492Z,101294.23
2023-05-18T07:02:05.692Z,101291.29
2023-05-18T07:04:39.468Z,101299.10
2023-05-18T07:07:13.549Z,101299.01
2023-05-18T07:09:50.113Z,101298.71
2023-05-18T07:12:24.240Z,101302.31
2023-05-18T07:14:57.751Z,101302.08
2023-05-18T07:17:32.111Z,101303.00
2023-05-18T07:20:07.458Z,101304.32
2023-05-18T07:22:41.032Z,101307.98
2023-05-18T07:25:14.841Z,101306.61
2023-05-18T07:27:48.604Z,101311.27
2023-05-18T07:30:22.274Z,101309.56
2023-05-18T07:32:56.965Z,101309.20
2023-05-18T07:35:31.454Z,101308.79
2023-05-18T07:38:05.723Z,101310.25
2023-05-18T07:40:39.750Z,101316.88
2023-05-18T07:43:13.685Z,101314.23
2023-05-18T07:45:47.739Z,101313.25
2023-05-18T07:48:21.411Z,101312.11
2023-05-18T07:50:55.797Z,101316.86
2023-05-18T07:53:29.452Z,101314.38
2023-05-18T07:56:04.504Z,101320.13
2023-05-18T07:58:38.658Z,101321.73
2023-05-18T08:01:12.360Z,101320.23
2023-05-18T08:03:46.404Z,101321.79
2023-05-18T08:06:20.928Z,101321.73
2023-05-18T08:08:57.343Z,101321.70
2023-05-18T08:11:31.063Z,101326.59
2023-05-18T08:14:04.830Z,101326.30
2023-05-18T08:16:38.655Z,101326.21
2023-05-18T08:19:12.714Z,101327.71
2023-05-18T08:21:46.699Z,101327.44
2023-05-18T08:24:20.797Z,101322.98
2023-05-18T08:26:54.658Z,101318.78
2023-05-18T08:29:28.483Z,101326.20
2023-05-18T08:32:02.366Z,101327.60
2023-05-18T08:34:36.335Z,101326.11
2023-05-18T08:37:10.254Z,101325.18
2023-05-18T08:39:46.506Z,101330.30
2023-05-18T08:42:27.702Z,101328.22
2023-05-18T08:45:16.375Z,101329.36
2023-05-18T08:47:54.320Z,101328.36
2023-05-18T08:50:33.393Z,101327.91
2023-05-18T08:53:09.125Z,101331.03
2023-05-18T08:55:44.178Z,101329.12
2023-05-18T08:58:21.910Z,101325.27
2023-05-18T09:00:56.381Z,101328.44
2023-05-18T09:03:31.113Z,101331.15
2023-05-18T09:06:05.283Z,101335.95
2023-05-18T09:08:39.356Z,101334.69
2023-05-18T09:11:14.616Z,101330.89
2023-05-18T09:13:48.431Z,101332.75
2023-05-18T09:16:22.208Z,101329.02
2023-05-18T09:18:56.311Z,101329.16
2023-05-18T09:21:32.771Z,101331.18
2023-05-18T09:24:07.955Z,101335.10
2023-05-18T09:26:42.311Z,101333.08
2023-05-18T09:29:24.610Z,101330.61
2023-05-18T09:31:58.483Z,101334.91
2023-05-18T09:34:43.292Z,101329.73
2023-05-18T09:37:20.460Z,101328.21
2023-05-18T09:40:06.465Z,101329.65
2023-05-18T09:42:41.851Z,101328.77
2023-05-18T09:45:24.605Z,101334.45
2023-05-18T09:47:58.017Z,101336.75
2023-05-18T09:50:32.888Z,101335.33
2023-05-18T09:53:08.245Z,101334.06
2023-05-18T09:55:50.660Z,101336.05
2023-05-18T09:58:24.685Z,101342.33
2023-05-18T10:01:04.302Z,101344.87
2023-05-18T10:03:40.917Z,101340.84
2023-05-18T10:06:15.450Z,101338.02
2023-05-18T10:08:50.938Z,101335.48
2023-05-18T10:11:25.121Z,101331.63
2023-05-18T10:14:00.220Z,101333.45
2023-05-18T10:16:35.843Z,101332.21
2023-05-18T10:19:10.817Z,101335.47
2023-05-18T10:21:46.533Z,101336.80
2023-05-18T10:24:23.506Z,101334.66
2023-05-18T10:26:58.558Z,101333.61
2023-05-18T10:29:34.368Z,101331.73
2023-05-18T10:32:13.837Z,101334.11
2023-05-18T10:34:48.019Z,101330.18
2023-05-18T10:37:24.068Z,101326.77
2023-05-18T10:40:00.411Z,101329.19
2023-05-18T10:42:34.909Z,101327.51
2023-05-18T10:45:20.054Z,101327.14
2023-05-18T10:47:55.593Z,101323.25
2023-05-18T10:50:30.343Z,101324.92
2023-05-18T10:53:05.156Z,101326.85
2023-05-18T10:55:39.309Z,101328.30
2023-05-18T10:58:17.203Z,101325.55
2023-05-18T11:00:54.169Z,101325.34
2023-05-18T11:03:28.968Z,101320.08
2023-05-18T11:06:11.307Z,101317.86
2023-05-18T11:08:51.032Z,101319.05
2023-05-18T11:11:30.605Z,101322.05
2023-05-18T11:14:31.397Z,101319.65
2023-05-18T11:17:23.065Z,101321.86
2023-05-18T11:20:17.975Z,101321.63
2023-05-18T11:23:04.208Z,101312.29
2023-05-18T11:25:46.614Z,101312.48
2023-05-18T11:28:23.968Z,101308.65
2023-05-18T11:30:57.953Z,101307.50
2023-05-18T11:33:32.787Z,101307.46
2023-05-18T11:36:11.921Z,101305.91
2023-05-18T11:38:56.391Z,101303.86
2023-05-18T11:41:42.932Z,101304.83
2023-05-18T11:44:29.896Z,101307.83
2023-05-18T11:47:08.947Z,101308.98
2023-05-18T11:49:47.811Z,101309.03
2023-05-18T11:52:20.999Z,101304.80
2023-05-18T11:54:56.332Z,101307.92
2023-05-18T11:57:40.789Z,101308.70
2023-05-18T12:00:17.490Z,101309.45
2023-05-18T12:02:53.178Z,101313.29
2023-05-18T12:05:32.257Z,101316.96
2023-05-18T12:08:06.929Z,101319.26
2023-05-18T12:10:41.600Z,101315.25
2023-05-18T12:13:16.286Z,101318.88
2023-05-18T12:15:51.071Z,101321.42
2023-05-18T12:18:24.682Z,101317.48
2023-05-18T12:20:58.949Z,101312.13
2023-05-18T12:23:40.378Z,101314.58
2023-05-18T12:26:14.887Z,101312.31
2023-05-18T12:28:48.777Z,101316.11
2023-05-18T12:31:22.670Z,101320.73
2023-05-18T12:33:59.196Z,101321.70
2023-05-18T12:36:34.104Z,101317.83
2023-05-18T12:39:07.886Z,101317.61
2023-05-18T12:41:41.316Z,101318.87
2023-05-18T12:44:15.310Z,101315.03
2023-05-18T12:46:49.749Z,101321.63
2023-05-18T12:49:23.680Z,101318.95
2023-05-18T12:51:58.497Z,101318.63
2023-05-18T12:54:33.458Z,101319.59
2023-05-18T12:57:10.344Z,101321.17
2023-05-18T12:59:51.687Z,101322.64
2023-05-18T13:02:41.772Z,101321.52
2023-05-18T13:05:16.236Z,101321.05
2023-05-18T13:07:50.004Z,101317.70
2023-05-18T13:10:23.655Z,101316.45
2023-05-18T13:13:02.063Z,101315.08
2023-05-18T13:15:39.162Z,101311.10
2023-05-18T13:18:13.278Z,101312.92
2023-05-18T13:20:52.321Z,101314.23
2023-05-18T13:23:29.323Z,101311.70
2023-05-18T13:26:02.866Z,101311.33
2023-05-18T13:28:37.515Z,101316.12
2023-05-18T13:31:12.964Z,101313.30
2023-05-18T13:33:47.026Z,101313.00
2023-05-18T13:36:21.020Z,101311.40
2023-05-18T13:38:54.561Z,101309.02
2023-05-18T13:41:28.469Z,101306.77
2023-05-18T13:44:02.791Z,101307.64
2023-05-18T13:46:38.316Z,101308.33
2023-05-18T13:49:13.106Z,101313.06
2023-05-18T13:51:48.534Z,101311.40
2023-05-18T13:54:22.144Z,101314.37
2023-05-18T13:56:56.153Z,101312.98
2023-05-18T13:59:29.738Z,101314.16
2023-05-18T14:02:03.670Z,101316.61
2023-05-18T14:04:38.360Z,101316.42
2023-05-18T14:07:12.902Z,101316.87
2023-05-18T14:09:46.606Z,101313.61
2023-05-18T14:12:20.842Z,101315.64
2023-05-18T14:14:54.561Z,101316.47
2023-05-18T14:17:30.075Z,101315.61
2023-05-18T14:20:05.403Z,101313.27
2023-05-18T14:22:39.343Z,101310.34
2023-05-18T14:25:13.484Z,101310.21
2023-05-18T14:27:47.577Z,101310.41
2023-05-18T14:30:21.632Z,101308.91
2023-05-18T14:32:55.602Z,101304.48
2023-05-18T14:35:29.361Z,101308.03
2023-05-18T14:38:04.200Z,101309.60
2023-05-18T14:40:37.739Z,101311.66
2023-05-18T14:43:11.225Z,101312.95
2023-05-18T14:45:48.306Z,101317.06
2023-05-18T14:48:27.749Z,101315.95
2023-05-18T14:51:01.469Z,101317.06
2023-05-18T14:53:35.374Z,101316.98
2023-05-18T14:56:10.512Z,101314.31
2023-05-18T14:58:44.360Z,101317.15
2023-05-18T15:01:17.822Z,101318.07
2023-05-18T15:03:51.760Z,101314.26
2023-05-18T15:06:26.377Z,101313.61
2023-05-18T15:09:00.240Z,101315.67
2023-05-18T15:11:34.135Z,101317.90
2023-05-18T15:14:08.310Z,101315.65
2023-05-18T15:16:42.799Z,101316.73
2023-05-18T15:19:17.325Z,101314.34
2023-05-18T15:21:51.181Z,101313.48
2023-05-18T15:24:25.293Z,101313.40
2023-05-18T15:26:59.020Z,101316.50
2023-05-18T15:29:32.940Z,101318.77
2023-05-18T15:32:07.228Z,101319.30
2023-05-18T15:34:41.145Z,101319.35
2023-05-18T15:37:15.353Z,101320.20
2023-05-18T15:39:49.188Z,101321.71
2023-05-18T15:42:22.877Z,101321.30
2023-05-18T15:44:56.580Z,101317.02
2023-05-18T15:47:30.078Z,101318.27
2023-05-18T15:50:04.717Z,101318.60
2023-05-18T15:52:38.456Z,101315.30
2023-05-18T15:55:13.060Z,101317.15
2023-05-18T15:57:47.086Z,101316.92
2023-05-18T16:00:24.192Z,101318.25
2023-05-18T16:02:58.078Z,101320.93
2023-05-18T16:05:32.271Z,101321.31
2023-05-18T16:08:06.204Z,101321.60
2023-05-18T16:10:40.105Z,101315.04
2023-05-18T16:13:14.546Z,101321.08
2023-05-18T16:15:48.526Z,101320.10
2023-05-18T16:18:22.258Z,101322.15
2023-05-18T16:20:56.783Z,101322.02
2023-05-18T16:23:30.756Z,101322.82
2023-05-18T16:26:05.853Z,101324.38
2023-05-18T16:28:39.636Z,101324.25
2023-05-18T16:31:14.019Z,101320.81
2023-05-18T16:33:47.782Z,101321.04
2023-05-18T16:36:21.508Z,101319.41
2023-05-18T16:38:55.250Z,101321.46
2023-05-18T16:41:28.769Z,101321.19
2023-05-18T16:44:02.778Z,101319.27
2023-05-18T16:46:37.098Z,101322.34
2023-05-18T16:49:10.606Z,101325.80
2023-05-18T16:51:44.572Z,101323.87
2023-05-18T16:54:17.932Z,101326.82
2023-05-18T16:56:52.325Z,101325.98
2023-05-18T16:59:25.826Z,101327.56
2023-05-18T17:01:59.409Z,101328.56
2023-05-18T17:04:33.344Z,101332.25
2023-05-18T17:07:07.824Z,101332.73
2023-05-18T17:09:42.803Z,101333.11
2023-05-18T17:12:16.664Z,101331.72
2023-05-18T17:14:52.070Z,101334.52
2023-05-18T17:17:26.451Z,101334.65
2023-05-18T17:20:00.407Z,101336.55
2023-05-18T17:22:35.223Z,101339.36
2023-05-18T17:25:10.108Z,101337.73
2023-05-18T17:27:44.178Z,101337.66
2023-05-18T17:30:18.283Z,101339.09
2023-05-18T17:32:52.033Z,101341.41
2023-05-18T17:35:25.792Z,101348.60
2023-05-18T17:38:00.056Z,101345.38
2023-05-18T17:40:34.163Z,101343.52
2023-05-18T17:43:08.659Z,101347.55
2023-05-18T17:45:42.676Z,101346.60
2023-05-18T17:48:16.505Z,101347.50
2023-05-18T17:50:52.651Z,101347.98
2023-05-18T17:53:26.583Z,101351.52
2023-05-18T17:56:00.682Z,101351.92
2023-05-18T17:58:36.391Z,101354.73
2023-05-18T18:01:11.048Z,101354.11
2023-05-18T18:03:45.478Z,101355.73
2023-05-18T18:06:23.071Z,101356.90
2023-05-18T18:08:58.978Z,101354.52
2023-05-18T18:11:32.872Z,101356.84
2023-05-18T18:14:06.954Z,101360.23
2023-05-18T18:16:41.137Z,101359.28
2023-05-18T18:19:16.311Z,101359.37
2023-05-18T18:21:50.089Z,101364.73
2023-05-18T18:24:24.323Z,101362.89
2023-05-18T18:26:58.056Z,101361.78
2023-05-18T18:29:32.751Z,101360.98
2023-05-18T18:32:09.123Z,101366.02
2023-05-18T18:34:45.408Z,101368.59
2023-05-18T18:37:19.145Z,101371.34
2023-05-18T18:39:53.958Z,101366.70
2023-05-18T18:42:29.357Z,101367.93
2023-05-18T18:45:05.638Z,101372.59
2023-05-18T18:47:40.915Z,101373.48
2023-05-18T18:50:14.853Z,101375.86
2023-05-18T18:52:49.388Z,101377.01
2023-05-18T18:55:24.734Z,101378.11
2023-05-18T18:58:01.632Z,101380.23
2023-05-18T19:00:37.285Z,101383.09
2023-05-18T19:03:14.940Z,101380.19
2023-05-18T19:05:49.056Z,101378.27
2023-05-18T19:08:23.752Z,101380.52
2023-05-18T19:10:58.276Z,101380.27
2023-05-18T19:13:32.569Z,101378.35
2023-05-18T19:16:08.380Z,101383.61
2023-05-18T19:18:42.494Z,101385.65
2023-05-18T19:21:17.754Z,101389.05
2023-05-18T19:23:51.554Z,101386.19
2023-05-18T19:26:27.191Z,101387.06
2023-05-18T19:29:04.955Z,101386.89
2023-05-18T19:31:39.208Z,101385.56
2023-05-18T19:34:14.442Z,101388.23
2023-05-18T19:36:48.536Z,101387.88
2023-05-18T19:39:24.540Z,101387.64
2023-05-18T19:41:58.744Z,101389.46
2023-05-18T19:44:33.002Z,101389.61
2023-05-18T19:47:07.809Z,101387.95
2023-05-18T19:49:41.745Z,101386.75
2023-05-18T19:52:17.790Z,101389.53
2023-05-18T19:54:52.188Z,101393.86
2023-05-18T19:57:26.810Z,101393.77
2023-05-18T20:00:01.487Z,101394.05
2023-05-18T20:02:35.435Z,101394.91
2023-05-18T20:05:12.992Z,101395.70
2023-05-18T20:07:47.248Z,101398.88
2023-05-18T20:10:21.054Z,101401.17
2023-05-18T20:12:55.474Z,101404.88
2023-05-18T20:15:30.398Z,101407.16
2023-05-18T20:18:06.581Z,101409.30
2023-05-18T20:20:41.630Z,101408.58
2023-05-18T20:23:15.290Z,101410.63
2023-05-18T20:25:49.613Z,101410.73
2023-05-18T20:28:26.471Z,101410.06
2023-05-18T20:31:00.108Z,101411.44
2023-05-18T20:33:34.902Z,101409.61
2023-05-18T20:36:09.620Z,101417.62
2023-05-18T20:38:44.676Z,101417.34
2023-05-18T20:41:19.055Z,101422.77
2023-05-18T20:43:52.747Z,101422.41
2023-05-18T20:46:28.051Z,101419.89
2023-05-18T20:49:02.000Z,101424.15
2023-05-18T20:51:36.167Z,101425.77
2023-05-18T20:54:09.829Z,101425.81
2023-05-18T20:56:43.919Z,101426.95
2023-05-18T20:59:18.705Z,101429.38
2023-05-18T21:01:52.165Z,101430.52
2023-05-18T21:04:26.119Z,101426.37
2023-05-18T21:07:00.317Z,101428.18
2023-05-18T21:09:34.847Z,101432.75
2023-05-18T21:12:09.406Z,101437.30
2023-05-18T21:14:43.331Z,101440.55
2023-05-18T21:17:17.250Z,101440.80
2023-05-18T21:19:51.288Z,101439.66
2023-05-18T21:22:24.905Z,101440.05
2023-05-18T21:24:58.384Z,101441.90
2023-05-18T21:27:32.481Z,101438.77
2023-05-18T21:30:07.046Z,101436.06
2023-05-18T21:32:42.918Z,101438.13
2023-05-18T21:35:17.421Z,101440.05
2023-05-18T21:37:51.665Z,101441.61
2023-05-18T21:40:25.432Z,101443.48
2023-05-18T21:42:59.508Z,101445.70
2023-05-18T21:45:33.454Z,101447.95
2023-05-18T21:48:07.894Z,101450.77
2023-05-18T21:50:42.299Z,101454.02
2023-05-18T21:53:16.243Z,101457.08
2023-05-18T21:55:49.925Z,101456.91
2023-05-18T21:58:24.931Z,101461.03
2023-05-18T22:00:58.975Z,101458.29
2023-05-18T22:03:32.947Z,101457.11
2023-05-18T22:06:06.775Z,101461.45
2023-05-18T22:08:40.645Z,101463.94
2023-05-18T22:11:14.654Z,101460.91
2023-05-18T22:13:48.150Z,101462.80
2023-05-18T22:16:22.428Z,101464.11
2023-05-18T22:18:56.247Z,101465.35
2023-05-18T22:21:30.480Z,101468.55
2023-05-18T22:24:04.539Z,101472.60
2023-05-18T22:26:39.100Z,101472.24
2023-05-18T22:29:12.639Z,101468.70
2023-05-18T22:31:46.267Z,101468.39
2023-05-18T22:34:20.276Z,101468.10
2023-05-18T22:36:54.231Z,101472.91
2023-05-18T22:39:28.124Z,101474.66
2023-05-18T22:42:02.145Z,101474.69
2023-05-18T22:44:35.865Z,101472.40
2023-05-18T22:47:11.740Z,101470.21
2023-05-18T22:49:46.218Z,101474.70
2023-05-18T22:52:20.081Z,101473.13
2023-05-18T22:54:54.086Z,101473.62
2023-05-18T22:57:27.685Z,101474.11
2023-05-18T23:00:01.260Z,101472.90
2023-05-18T23:02:34.951Z,101470.34
2023-05-18T23:05:09.804Z,101470.30
2023-05-18T23:07:43.407Z,101469.73
2023-05-18T23:10:18.883Z,101470.63
2023-05-18T23:12:53.325Z,101468.73
2023-05-18T23:15:28.092Z,101470.14
2023-05-18T23:18:02.182Z,101469.16
2023-05-18T23:20:36.437Z,101470.75
2023-05-18T23:23:10.521Z,101470.59
2023-05-18T23:25:44.156Z,101471.33
2023-05-18T23:28:17.848Z,101469.42
2023-05-18T23:30:51.732Z,101469.30
2023-05-18T23:33:26.962Z,101467.27
2023-05-18T23:36:04.191Z,101470.23
2023-05-18T23:38:38.322Z,101472.14
2023-05-18T23:41:13.441Z,101471.02
2023-05-18T23:43:48.469Z,101471.42
2023-05-18T23:46:23.389Z,101475.19
2023-05-18T23:48:58.213Z,101475.36
2023-05-18T23:51:36.810Z,101476.92
2023-05-18T23:54:13.393Z,101477.13
2023-05-18T23:56:47.932Z,101473.41
2023-05-18T23:59:21.994Z,101469.13
